sensor_id;sensor_type;location;lat;lon;timestamp;pressure;altitude;pressure_sealevel;temperature;humidity
29417;BME280;28421;51.030;4.006;2023-03-31T03:18:27;99802.84;;;10.84;90.60
29417;BME280;28421;51.030;4.006;2023-03-31T03:20:53;99773.66;;;10.74;90.39
29417;BME280;28421;51.030;4.006;2023-03-31T03:23:18;99749.03;;;10.77;89.97
29417;BME280;28421;51.030;4.006;2023-03-31T03:25:44;99721.25;;;10.63;89.80
29417;BME280;28421;51.030;4.006;2023-03-31T03:28:10;99701.97;;;10.53;89.34
29417;BME280;28421;51.030;4.006;2023-03-31T03:30:35;99719.41;;;10.64;88.75
29417;BME280;28421;51.030;4.006;2023-03-31T03:33:01;99759.59;;;10.79;88.85
29417;BME280;28421;51.030;4.006;2023-03-31T03:35:27;99751.72;;;10.77;88.81
29417;BME280;28421;51.030;4.006;2023-03-31T03:37:53;99713.59;;;10.60;88.23
29417;BME280;28421;51.030;4.006;2023-03-31T03:40:18;99749.25;;;10.82;88.02
29417;BME280;28421;51.030;4.006;2023-03-31T03:42:44;99730.59;;;10.67;87.20
29417;BME280;28421;51.030;4.006;2023-03-31T03:45:09;99731.41;;;10.68;86.68
29417;BME280;28421;51.030;4.006;2023-03-31T03:47:35;99737.59;;;10.68;86.58
29417;BME280;28421;51.030;4.006;2023-03-31T03:50:01;99701.97;;;10.53;86.21
29417;BME280;28421;51.030;4.006;2023-03-31T03:52:26;99719.44;;;10.70;86.33
29417;BME280;28421;51.030;4.006;2023-03-31T03:54:52;99707.25;;;10.75;86.35
29417;BME280;28421;51.030;4.006;2023-03-31T03:57:17;99673.25;;;10.54;86.28
29417;BME280;28421;51.030;4.006;2023-03-31T03:59:43;99703.09;;;10.72;85.35
29417;BME280;28421;51.030;4.006;2023-03-31T04:02:08;99675.53;;;10.57;85.31
29417;BME280;28421;51.030;4.006;2023-03-31T04:04:33;99687.56;;;10.67;85.56
29417;BME280;28421;51.030;4.006;2023-03-31T04:06:59;99654.59;;;10.39;86.03
29417;BME280;28421;51.030;4.006;2023-03-31T04:09:24;99661.47;;;10.61;86.07
29417;BME280;28421;51.030;4.006;2023-03-31T04:11:50;99652.16;;;10.51;85.81
29417;BME280;28421;51.030;4.006;2023-03-31T04:14:15;99651.75;;;10.60;85.69
29417;BME280;28421;51.030;4.006;2023-03-31T04:16:41;99630.97;;;10.28;86.21
29417;BME280;28421;51.030;4.006;2023-03-31T04:19:06;99675.22;;;10.80;86.08
29417;BME280;28421;51.030;4.006;2023-03-31T04:21:32;99662.31;;;10.55;86.21
29417;BME280;28421;51.030;4.006;2023-03-31T04:23:59;99666.47;;;10.64;86.69
29417;BME280;28421;51.030;4.006;2023-03-31T04:26:33;99672.69;;;10.72;86.54
29417;BME280;28421;51.030;4.006;2023-03-31T04:29:13;99660.47;;;10.69;86.77
29417;BME280;28421;51.030;4.006;2023-03-31T04:31:40;99644.09;;;10.51;87.15
29417;BME280;28421;51.030;4.006;2023-03-31T04:34:13;99626.31;;;10.50;87.28
29417;BME280;28421;51.030;4.006;2023-03-31T04:36:40;99616.19;;;10.52;87.37
29417;BME280;28421;51.030;4.006;2023-03-31T04:39:08;99617.03;;;10.59;87.07
29417;BME280;28421;51.030;4.006;2023-03-31T04:41:36;99610.03;;;10.71;87.28
29417;BME280;28421;51.030;4.006;2023-03-31T04:44:02;99577.09;;;10.42;86.84
29417;BME280;28421;51.030;4.006;2023-03-31T04:46:27;99602.78;;;10.58;87.33
29417;BME280;28421;51.030;4.006;2023-03-31T04:48:53;99593.88;;;10.64;87.48
29417;BME280;28421;51.030;4.006;2023-03-31T04:51:18;99596.81;;;10.76;87.44
29417;BME280;28421;51.030;4.006;2023-03-31T04:53:45;99601.28;;;10.49;88.06
29417;BME280;28421;51.030;4.006;2023-03-31T04:56:11;99546.25;;;10.25;88.56
29417;BME280;28421;51.030;4.006;2023-03-31T04:58:36;99546.69;;;10.35;88.23
29417;BME280;28421;51.030;4.006;2023-03-31T05:01:03;99559.06;;;10.36;88.46
29417;BME280;28421;51.030;4.006;2023-03-31T05:03:31;99581.63;;;10.42;88.96
29417;BME280;28421;51.030;4.006;2023-03-31T05:05:56;99533.44;;;10.27;89.14
29417;BME280;28421;51.030;4.006;2023-03-31T05:08:22;99560.56;;;10.45;89.41
29417;BME280;28421;51.030;4.006;2023-03-31T05:10:48;99544.50;;;10.11;89.97
29417;BME280;28421;51.030;4.006;2023-03-31T05:13:13;99557.06;;;10.45;90.08
29417;BME280;28421;51.030;4.006;2023-03-31T08:44:34;99361.03;;;12.43;76.17
29417;BME280;28421;51.030;4.006;2023-03-31T08:47:28;99388.72;;;12.57;76.07
29417;BME280;28421;51.030;4.006;2023-03-31T08:50:10;99347.94;;;12.47;76.03
29417;BME280;28421;51.030;4.006;2023-03-31T08:52:41;99357.38;;;12.37;76.29
29417;BME280;28421;51.030;4.006;2023-03-31T08:55:17;99363.97;;;12.41;76.27
29417;BME280;28421;51.030;4.006;2023-03-31T08:58:02;99347.72;;;12.48;76.68
29417;BME280;28421;51.030;4.006;2023-03-31T09:01:00;99371.53;;;12.51;76.49
29417;BME280;28421;51.030;4.006;2023-03-31T09:03:30;99360.72;;;12.33;76.22
29417;BME280;28421;51.030;4.006;2023-03-31T09:06:05;99352.03;;;12.31;77.13
29417;BME280;28421;51.030;4.006;2023-03-31T09:08:35;99354.06;;;12.35;76.55
29417;BME280;28421;51.030;4.006;2023-03-31T09:14:03;99350.59;;;12.28;76.51
29417;BME280;28421;51.030;4.006;2023-03-31T09:19:50;99357.59;;;12.36;77.14
29417;BME280;28421;51.030;4.006;2023-03-31T09:22:28;99356.47;;;12.43;76.85
29417;BME280;28421;51.030;4.006;2023-03-31T09:25:00;99365.44;;;12.37;76.58
29417;BME280;28421;51.030;4.006;2023-03-31T09:27:30;99303.88;;;11.84;75.92
29417;BME280;28421;51.030;4.006;2023-03-31T09:30:26;99329.38;;;12.13;76.28
29417;BME280;28421;51.030;4.006;2023-03-31T09:33:03;99345.09;;;12.41;75.73
29417;BME280;28421;51.030;4.006;2023-03-31T09:35:34;99347.09;;;12.53;75.27
29417;BME280;28421;51.030;4.006;2023-03-31T09:37:59;99288.53;;;12.35;75.49
29417;BME280;28421;51.030;4.006;2023-03-31T09:40:26;99333.22;;;12.67;75.42
29417;BME280;28421;51.030;4.006;2023-03-31T09:42:57;99322.44;;;12.67;74.23
29417;BME280;28421;51.030;4.006;2023-03-31T09:45:23;99335.88;;;12.92;74.52
29417;BME280;28421;51.030;4.006;2023-03-31T09:47:51;99336.03;;;12.79;73.31
29417;BME280;28421;51.030;4.006;2023-03-31T09:50:18;99329.72;;;12.85;74.02
29417;BME280;28421;51.030;4.006;2023-03-31T09:55:26;99278.97;;;12.39;74.11
29417;BME280;28421;51.030;4.006;2023-03-31T09:57:55;99264.97;;;12.30;73.50
29417;BME280;28421;51.030;4.006;2023-03-31T10:00:24;99320.66;;;12.61;72.93
29417;BME280;28421;51.030;4.006;2023-03-31T10:03:00;99330.91;;;12.71;73.29
29417;BME280;28421;51.030;4.006;2023-03-31T10:05:39;99291.00;;;12.61;73.37
29417;BME280;28421;51.030;4.006;2023-03-31T10:10:55;99299.75;;;12.75;72.41
29417;BME280;28421;51.030;4.006;2023-03-31T10:13:26;99252.47;;;12.73;72.19
29417;BME280;28421;51.030;4.006;2023-03-31T10:16:00;99262.53;;;13.02;71.67
29417;BME280;28421;51.030;4.006;2023-03-31T10:18:35;99289.78;;;13.31;70.93
29417;BME280;28421;51.030;4.006;2023-03-31T10:21:02;99258.16;;;13.01;70.50
29417;BME280;28421;51.030;4.006;2023-03-31T10:23:30;99296.91;;;13.25;70.83
29417;BME280;28421;51.030;4.006;2023-03-31T10:25:57;99276.13;;;13.26;71.40
29417;BME280;28421;51.030;4.006;2023-03-31T10:28:24;99294.63;;;13.22;71.73
29417;BME280;28421;51.030;4.006;2023-03-31T10:30:55;99296.03;;;13.43;71.54
29417;BME280;28421;51.030;4.006;2023-03-31T10:33:33;99238.00;;;13.04;69.70
29417;BME280;28421;51.030;4.006;2023-03-31T10:36:07;99267.22;;;13.25;70.31
29417;BME280;28421;51.030;4.006;2023-03-31T10:38:37;99228.66;;;13.06;70.65
29417;BME280;28421;51.030;4.006;2023-03-31T10:41:07;99280.19;;;13.16;69.55
29417;BME280;28421;51.030;4.006;2023-03-31T10:43:39;99246.34;;;13.02;70.31
29417;BME280;28421;51.030;4.006;2023-03-31T10:46:06;99293.75;;;13.10;70.47
29417;BME280;28421;51.030;4.006;2023-03-31T10:48:38;99251.44;;;12.74;71.26
29417;BME280;28421;51.030;4.006;2023-03-31T10:51:20;99243.19;;;12.68;71.48
29417;BME280;28421;51.030;4.006;2023-03-31T10:53:46;99282.97;;;12.91;71.19
29417;BME280;28421;51.030;4.006;2023-03-31T10:56:44;99304.19;;;13.06;71.75
29417;BME280;28421;51.030;4.006;2023-03-31T11:05:14;99271.34;;;12.73;72.87
29417;BME280;28421;51.030;4.006;2023-03-31T11:10:33;99274.97;;;13.03;72.71
29417;BME280;28421;51.030;4.006;2023-03-31T11:30:45;99247.00;;;13.46;70.89
29417;BME280;28421;51.030;4.006;2023-03-31T11:36:46;99246.72;;;13.66;71.32
29417;BME280;28421;51.030;4.006;2023-03-31T11:42:36;99238.00;;;13.52;71.67
29417;BME280;28421;51.030;4.006;2023-03-31T11:45:15;99252.63;;;13.45;71.65
29417;BME280;28421;51.030;4.006;2023-03-31T11:47:44;99233.69;;;13.33;72.60
29417;BME280;28421;51.030;4.006;2023-03-31T11:50:32;99201.41;;;12.78;73.56
29417;BME280;28421;51.030;4.006;2023-03-31T11:53:19;99261.66;;;13.20;73.14
29417;BME280;28421;51.030;4.006;2023-03-31T11:55:50;99262.66;;;12.89;75.11
29417;BME280;28421;51.030;4.006;2023-03-31T11:58:26;99235.84;;;12.39;76.51
29417;BME280;28421;51.030;4.006;2023-03-31T12:06:18;99247.81;;;12.25;78.31
29417;BME280;28421;51.030;4.006;2023-03-31T12:14:57;99236.13;;;12.31;77.45
29417;BME280;28421;51.030;4.006;2023-03-31T12:17:27;99219.34;;;12.10;75.29
29417;BME280;28421;51.030;4.006;2023-03-31T12:20:20;99243.63;;;12.47;74.39
29417;BME280;28421;51.030;4.006;2023-03-31T12:22:48;99235.78;;;12.46;73.24
29417;BME280;28421;51.030;4.006;2023-03-31T12:25:15;99232.69;;;12.24;72.90
29417;BME280;28421;51.030;4.006;2023-03-31T12:27:45;99201.03;;;12.37;73.30
29417;BME280;28421;51.030;4.006;2023-03-31T12:30:28;99248.13;;;12.35;73.41
29417;BME280;28421;51.030;4.006;2023-03-31T12:33:04;99245.13;;;12.25;74.73
29417;BME280;28421;51.030;4.006;2023-03-31T12:35:43;99211.25;;;12.10;74.81
29417;BME280;28421;51.030;4.006;2023-03-31T12:49:24;99225.34;;;11.56;81.35
29417;BME280;28421;51.030;4.006;2023-03-31T12:55:30;99219.72;;;11.64;83.09
29417;BME280;28421;51.030;4.006;2023-03-31T13:01:16;99220.94;;;11.93;81.60
29417;BME280;28421;51.030;4.006;2023-03-31T13:03:43;99218.75;;;12.08;80.27
29417;BME280;28421;51.030;4.006;2023-03-31T13:09:05;99184.19;;;12.24;77.85
29417;BME280;28421;51.030;4.006;2023-03-31T13:11:38;99170.44;;;12.32;76.59
29417;BME280;28421;51.030;4.006;2023-03-31T13:16:32;99219.00;;;12.25;74.80
29417;BME280;28421;51.030;4.006;2023-03-31T13:18:58;99207.31;;;12.31;75.13
29417;BME280;28421;51.030;4.006;2023-03-31T13:21:24;99204.50;;;12.44;75.15
29417;BME280;28421;51.030;4.006;2023-03-31T13:23:52;99143.16;;;12.22;74.59
29417;BME280;28421;51.030;4.006;2023-03-31T13:34:28;99161.16;;;11.84;75.14
29417;BME280;28421;51.030;4.006;2023-03-31T13:37:07;99205.22;;;11.90;77.36
29417;BME280;28421;51.030;4.006;2023-03-31T13:40:21;99193.19;;;11.67;77.08
29417;BME280;28421;51.030;4.006;2023-03-31T13:43:24;99156.75;;;11.65;77.54
29417;BME280;28421;51.030;4.006;2023-03-31T13:46:15;99146.22;;;11.82;76.55
29417;BME280;28421;51.030;4.006;2023-03-31T13:51:28;99202.31;;;11.91;76.90
29417;BME280;28421;51.030;4.006;2023-03-31T14:04:59;99199.69;;;11.85;79.13
29417;BME280;28421;51.030;4.006;2023-03-31T14:07:33;99150.09;;;11.67;79.19
29417;BME280;28421;51.030;4.006;2023-03-31T14:10:01;99196.28;;;11.96;79.18
29417;BME280;28421;51.030;4.006;2023-03-31T14:12:32;99194.66;;;11.63;79.39
29417;BME280;28421;51.030;4.006;2023-03-31T14:14:58;99158.06;;;11.31;80.96
29417;BME280;28421;51.030;4.006;2023-03-31T14:17:40;99190.38;;;11.56;80.75
29417;BME280;28421;51.030;4.006;2023-03-31T14:24:43;99140.41;;;11.10;79.66
29417;BME280;28421;51.030;4.006;2023-03-31T14:37:14;99177.78;;;11.75;78.76
29417;BME280;28421;51.030;4.006;2023-03-31T14:40:00;99162.75;;;11.67;79.69
29417;BME280;28421;51.030;4.006;2023-03-31T14:42:37;99127.25;;;11.52;80.71
29417;BME280;28421;51.030;4.006;2023-03-31T14:45:10;99145.13;;;11.46;81.29
29417;BME280;28421;51.030;4.006;2023-03-31T14:47:55;99167.22;;;11.48;82.32
29417;BME280;28421;51.030;4.006;2023-03-31T14:50:27;99147.13;;;11.51;83.43
29417;BME280;28421;51.030;4.006;2023-03-31T14:52:54;99138.56;;;11.35;82.66
29417;BME280;28421;51.030;4.006;2023-03-31T14:55:25;99153.88;;;11.35;84.16
29417;BME280;28421;51.030;4.006;2023-03-31T14:57:53;99147.97;;;11.19;85.11
29417;BME280;28421;51.030;4.006;2023-03-31T15:00:31;99154.22;;;11.20;85.93
29417;BME280;28421;51.030;4.006;2023-03-31T15:02:59;99153.16;;;11.21;86.22
29417;BME280;28421;51.030;4.006;2023-03-31T15:08:01;99132.69;;;11.20;86.61
29417;BME280;28421;51.030;4.006;2023-03-31T15:10:39;99104.66;;;11.03;86.44
29417;BME280;28421;51.030;4.006;2023-03-31T15:13:08;99093.31;;;11.01;86.48
29417;BME280;28421;51.030;4.006;2023-03-31T15:15:35;99123.47;;;11.03;86.46
29417;BME280;28421;51.030;4.006;2023-03-31T15:18:01;99086.16;;;10.88;87.00
29417;BME280;28421;51.030;4.006;2023-03-31T15:20:35;99158.81;;;11.13;86.41
29417;BME280;28421;51.030;4.006;2023-03-31T15:23:03;99111.34;;;10.93;86.48
29417;BME280;28421;51.030;4.006;2023-03-31T15:25:33;99103.34;;;10.87;85.55
29417;BME280;28421;51.030;4.006;2023-03-31T15:28:05;99095.84;;;10.95;85.70
29417;BME280;28421;51.030;4.006;2023-03-31T15:30:32;99080.94;;;10.93;84.83
29417;BME280;28421;51.030;4.006;2023-03-31T15:32:58;99126.00;;;10.98;84.94
29417;BME280;28421;51.030;4.006;2023-03-31T15:35:29;99085.75;;;10.84;85.11
29417;BME280;28421;51.030;4.006;2023-03-31T15:37:56;99120.78;;;11.03;84.46
29417;BME280;28421;51.030;4.006;2023-03-31T15:43:16;99135.16;;;11.22;82.88
29417;BME280;28421;51.030;4.006;2023-03-31T15:51:22;99137.81;;;11.28;82.23
29417;BME280;28421;51.030;4.006;2023-03-31T15:53:48;99137.75;;;11.35;83.01
29417;BME280;28421;51.030;4.006;2023-03-31T15:56:40;99108.06;;;10.91;81.84
29417;BME280;28421;51.030;4.006;2023-03-31T15:59:46;99151.03;;;11.30;80.99
29417;BME280;28421;51.030;4.006;2023-03-31T16:02:20;99122.69;;;11.27;81.18
29417;BME280;28421;51.030;4.006;2023-03-31T16:04:54;99142.25;;;11.41;80.73
29417;BME280;28421;51.030;4.006;2023-03-31T16:07:22;99109.78;;;11.11;80.39
29417;BME280;28421;51.030;4.006;2023-03-31T16:12:20;99127.75;;;11.42;79.24
29417;BME280;28421;51.030;4.006;2023-03-31T16:14:52;99097.81;;;11.32;78.96
29417;BME280;28421;51.030;4.006;2023-03-31T16:17:24;99099.78;;;11.43;79.50
29417;BME280;28421;51.030;4.006;2023-03-31T16:20:39;99128.25;;;11.57;79.09
29417;BME280;28421;51.030;4.006;2023-03-31T16:22:42;99134.34;;;11.46;80.08
29417;BME280;28421;51.030;4.006;2023-03-31T16:25:16;99152.56;;;11.44;80.49
29417;BME280;28421;51.030;4.006;2023-03-31T16:27:46;99113.63;;;11.22;81.68
29417;BME280;28421;51.030;4.006;2023-03-31T16:30:18;99118.13;;;11.28;82.39
29417;BME280;28421;51.030;4.006;2023-03-31T16:35:29;99136.25;;;11.14;83.74
29417;BME280;28421;51.030;4.006;2023-03-31T16:37:54;99130.03;;;11.13;84.30
29417;BME280;28421;51.030;4.006;2023-03-31T16:40:20;99144.13;;;11.09;84.67
29417;BME280;28421;51.030;4.006;2023-03-31T16:42:45;99149.56;;;11.02;85.48
29417;BME280;28421;51.030;4.006;2023-03-31T16:45:11;99137.38;;;11.00;85.06
29417;BME280;28421;51.030;4.006;2023-03-31T16:47:38;99115.34;;;10.84;84.25
29417;BME280;28421;51.030;4.006;2023-03-31T16:50:04;99137.19;;;10.94;84.33
29417;BME280;28421;51.030;4.006;2023-03-31T16:52:31;99123.97;;;10.93;83.35
29417;BME280;28421;51.030;4.006;2023-03-31T16:54:57;99107.00;;;10.92;83.29
29417;BME280;28421;51.030;4.006;2023-03-31T16:57:22;99113.47;;;10.85;83.06
29417;BME280;28421;51.030;4.006;2023-03-31T16:59:47;99115.72;;;10.88;83.20
29417;BME280;28421;51.030;4.006;2023-03-31T17:02:13;99121.94;;;10.88;82.91
29417;BME280;28421;51.030;4.006;2023-03-31T17:04:39;99127.28;;;10.95;83.46
29417;BME280;28421;51.030;4.006;2023-03-31T17:07:04;99146.84;;;11.09;83.20
29417;BME280;28421;51.030;4.006;2023-03-31T17:09:29;99109.13;;;10.84;83.87
29417;BME280;28421;51.030;4.006;2023-03-31T17:11:55;99123.81;;;10.88;83.67
29417;BME280;28421;51.030;4.006;2023-03-31T17:14:20;99121.00;;;10.69;84.74
29417;BME280;28421;51.030;4.006;2023-03-31T17:16:46;99157.13;;;10.87;85.11
29417;BME280;28421;51.030;4.006;2023-03-31T17:19:11;99131.41;;;10.59;85.71
29417;BME280;28421;51.030;4.006;2023-03-31T17:21:37;99136.78;;;10.59;85.94
29417;BME280;28421;51.030;4.006;2023-03-31T17:24:05;99112.25;;;10.42;86.55
29417;BME280;28421;51.030;4.006;2023-03-31T17:26:32;99159.66;;;10.75;86.02
29417;BME280;28421;51.030;4.006;2023-03-31T17:28:57;99138.63;;;10.59;86.70
29417;BME280;28421;51.030;4.006;2023-03-31T17:31:24;99120.09;;;10.44;86.85
29417;BME280;28421;51.030;4.006;2023-03-31T17:33:50;99140.56;;;10.45;86.12
29417;BME280;28421;51.030;4.006;2023-03-31T17:36:15;99132.22;;;10.53;86.11
29417;BME280;28421;51.030;4.006;2023-03-31T17:38:41;99127.97;;;10.45;85.88
29417;BME280;28421;51.030;4.006;2023-03-31T17:41:09;99153.13;;;10.58;85.54
29417;BME280;28421;51.030;4.006;2023-03-31T17:43:35;99129.19;;;10.50;85.26
29417;BME280;28421;51.030;4.006;2023-03-31T17:46:01;99130.97;;;10.62;85.46
29417;BME280;28421;51.030;4.006;2023-03-31T17:48:28;99164.19;;;10.75;85.39
29417;BME280;28421;51.030;4.006;2023-03-31T17:50:53;99168.34;;;10.70;85.47
29417;BME280;28421;51.030;4.006;2023-03-31T17:53:19;99130.66;;;10.39;85.61
29417;BME280;28421;51.030;4.006;2023-03-31T17:55:44;99158.28;;;10.59;86.22
29417;BME280;28421;51.030;4.006;2023-03-31T17:58:10;99156.81;;;10.63;86.06
29417;BME280;28421;51.030;4.006;2023-03-31T18:00:38;99141.81;;;10.36;86.78
29417;BME280;28421;51.030;4.006;2023-03-31T18:03:04;99170.31;;;10.50;87.20
29417;BME280;28421;51.030;4.006;2023-03-31T18:05:29;99143.69;;;10.42;86.84
29417;BME280;28421;51.030;4.006;2023-03-31T18:07:57;99184.91;;;10.61;86.81
29417;BME280;28421;51.030;4.006;2023-03-31T18:10:23;99162.06;;;10.45;86.02
29417;BME280;28421;51.030;4.006;2023-03-31T18:12:48;99124.28;;;10.20;85.85
29417;BME280;28421;51.030;4.006;2023-03-31T18:15:14;99189.69;;;10.59;86.09
29417;BME280;28421;51.030;4.006;2023-03-31T18:17:40;99188.00;;;10.64;86.14
29417;BME280;28421;51.030;4.006;2023-03-31T18:20:07;99162.44;;;10.49;86.33
29417;BME280;28421;51.030;4.006;2023-03-31T18:22:34;99163.91;;;10.44;87.01
29417;BME280;28421;51.030;4.006;2023-03-31T18:24:59;99159.38;;;10.38;87.20
29417;BME280;28421;51.030;4.006;2023-03-31T18:27:25;99155.47;;;10.34;87.97
29417;BME280;28421;51.030;4.006;2023-03-31T18:29:51;99150.75;;;10.30;88.17
29417;BME280;28421;51.030;4.006;2023-03-31T18:32:16;99176.09;;;10.47;88.46
29417;BME280;28421;51.030;4.006;2023-03-31T18:34:41;99165.41;;;10.34;88.43
29417;BME280;28421;51.030;4.006;2023-03-31T18:37:07;99155.50;;;10.21;89.52
29417;BME280;28421;51.030;4.006;2023-03-31T18:39:33;99171.81;;;10.19;90.17
29417;BME280;28421;51.030;4.006;2023-03-31T18:41:58;99184.22;;;10.14;90.23
29417;BME280;28421;51.030;4.006;2023-03-31T18:44:24;99173.06;;;10.17;90.49
29417;BME280;28421;51.030;4.006;2023-03-31T18:46:49;99195.56;;;10.36;90.51
29417;BME280;28421;51.030;4.006;2023-03-31T18:49:15;99177.41;;;10.11;90.43
29417;BME280;28421;51.030;4.006;2023-03-31T18:51:40;99188.78;;;10.13;90.78
29417;BME280;28421;51.030;4.006;2023-03-31T18:54:06;99179.25;;;10.11;90.83
29417;BME280;28421;51.030;4.006;2023-03-31T18:56:32;99203.41;;;10.24;91.05
29417;BME280;28421;51.030;4.006;2023-03-31T18:58:57;99164.22;;;9.90;90.89
29417;BME280;28421;51.030;4.006;2023-03-31T19:01:24;99214.34;;;10.23;91.22
29417;BME280;28421;51.030;4.006;2023-03-31T19:03:49;99163.81;;;10.00;91.25
29417;BME280;28421;51.030;4.006;2023-03-31T19:06:15;99213.56;;;10.29;91.04
29417;BME280;28421;51.030;4.006;2023-03-31T19:08:42;99202.38;;;10.18;91.01
29417;BME280;28421;51.030;4.006;2023-03-31T19:11:12;99213.97;;;10.26;91.25
29417;BME280;28421;51.030;4.006;2023-03-31T19:13:39;99200.34;;;10.20;91.46
29417;BME280;28421;51.030;4.006;2023-03-31T19:16:07;99164.03;;;9.91;91.54
29417;BME280;28421;51.030;4.006;2023-03-31T19:18:33;99211.47;;;10.11;91.26
29417;BME280;28421;51.030;4.006;2023-03-31T19:21:01;99214.81;;;10.26;90.84
29417;BME280;28421;51.030;4.006;2023-03-31T19:23:28;99215.19;;;10.23;90.49
29417;BME280;28421;51.030;4.006;2023-03-31T19:25:55;99200.34;;;10.27;90.22
29417;BME280;28421;51.030;4.006;2023-03-31T19:28:22;99182.34;;;10.14;89.55
29417;BME280;28421;51.030;4.006;2023-03-31T19:30:49;99206.75;;;10.26;89.76
29417;BME280;28421;51.030;4.006;2023-03-31T19:33:16;99203.84;;;10.28;89.47
29417;BME280;28421;51.030;4.006;2023-03-31T19:35:46;99193.09;;;10.21;89.44
29417;BME280;28421;51.030;4.006;2023-03-31T19:38:15;99218.50;;;10.32;89.56
29417;BME280;28421;51.030;4.006;2023-03-31T19:40:41;99204.44;;;10.23;89.75
29417;BME280;28421;51.030;4.006;2023-03-31T19:43:14;99197.44;;;10.15;89.75
29417;BME280;28421;51.030;4.006;2023-03-31T19:45:43;99192.72;;;10.04;90.00
29417;BME280;28421;51.030;4.006;2023-03-31T19:48:10;99195.78;;;10.14;89.63
29417;BME280;28421;51.030;4.006;2023-03-31T19:50:35;99206.13;;;10.11;89.66
29417;BME280;28421;51.030;4.006;2023-03-31T19:53:01;99215.22;;;10.30;89.80
29417;BME280;28421;51.030;4.006;2023-03-31T19:55:26;99213.75;;;10.14;90.35
29417;BME280;28421;51.030;4.006;2023-03-31T19:57:52;99230.91;;;10.33;90.32
29417;BME280;28421;51.030;4.006;2023-03-31T20:00:18;99216.66;;;10.06;90.64
29417;BME280;28421;51.030;4.006;2023-03-31T20:02:44;99220.38;;;10.18;90.97
29417;BME280;28421;51.030;4.006;2023-03-31T20:05:10;99212.53;;;10.10;90.93
29417;BME280;28421;51.030;4.006;2023-03-31T20:07:36;99229.03;;;10.20;91.24
29417;BME280;28421;51.030;4.006;2023-03-31T20:10:01;99209.44;;;10.06;91.39
29417;BME280;28421;51.030;4.006;2023-03-31T20:12:27;99233.16;;;10.23;91.46
29417;BME280;28421;51.030;4.006;2023-03-31T20:14:52;99230.09;;;10.12;91.82
29417;BME280;28421;51.030;4.006;2023-03-31T20:17:18;99215.66;;;10.00;92.05
29417;BME280;28421;51.030;4.006;2023-03-31T20:19:45;99178.69;;;9.82;91.98
29417;BME280;28421;51.030;4.006;2023-03-31T20:22:10;99221.19;;;10.18;91.69
29417;BME280;28421;51.030;4.006;2023-03-31T20:24:36;99204.28;;;9.98;91.75
29417;BME280;28421;51.030;4.006;2023-03-31T20:27:03;99215.59;;;10.20;91.16
29417;BME280;28421;51.030;4.006;2023-03-31T20:29:29;99196.25;;;9.91;90.87
29417;BME280;28421;51.030;4.006;2023-03-31T20:31:54;99214.16;;;10.11;90.61
29417;BME280;28421;51.030;4.006;2023-03-31T20:34:20;99203.00;;;10.07;91.13
29417;BME280;28421;51.030;4.006;2023-03-31T20:36:47;99251.97;;;10.23;91.47
29417;BME280;28421;51.030;4.006;2023-03-31T20:39:17;99205.09;;;10.05;91.59
29417;BME280;28421;51.030;4.006;2023-03-31T20:41:44;99211.72;;;9.96;91.90
29417;BME280;28421;51.030;4.006;2023-03-31T20:44:10;99246.59;;;10.03;92.31
29417;BME280;28421;51.030;4.006;2023-03-31T20:46:37;99211.72;;;9.89;92.83
29417;BME280;28421;51.030;4.006;2023-03-31T20:49:03;99217.91;;;9.96;92.97
29417;BME280;28421;51.030;4.006;2023-03-31T20:51:32;99243.28;;;10.07;93.02
29417;BME280;28421;51.030;4.006;2023-03-31T20:53:59;99225.53;;;10.06;93.47
29417;BME280;28421;51.030;4.006;2023-03-31T20:56:29;99207.19;;;9.90;93.39
29417;BME280;28421;51.030;4.006;2023-03-31T20:58:56;99254.88;;;10.01;93.52
29417;BME280;28421;51.030;4.006;2023-03-31T21:01:24;99253.81;;;10.15;93.56
29417;BME280;28421;51.030;4.006;2023-03-31T21:03:51;99256.13;;;10.05;93.61
29417;BME280;28421;51.030;4.006;2023-03-31T21:06:18;99222.88;;;9.86;93.81
29417;BME280;28421;51.030;4.006;2023-03-31T21:08:47;99235.47;;;9.92;93.93
29417;BME280;28421;51.030;4.006;2023-03-31T21:11:15;99245.38;;;10.05;94.06
29417;BME280;28421;51.030;4.006;2023-03-31T21:13:41;99239.41;;;9.96;94.07
29417;BME280;28421;51.030;4.006;2023-03-31T21:16:09;99210.91;;;9.76;94.09
29417;BME280;28421;51.030;4.006;2023-03-31T21:18:34;99244.56;;;9.91;93.94
29417;BME280;28421;51.030;4.006;2023-03-31T21:21:04;99226.59;;;9.85;93.58
29417;BME280;28421;51.030;4.006;2023-03-31T21:23:30;99206.78;;;9.73;93.62
29417;BME280;28421;51.030;4.006;2023-03-31T21:25:58;99263.13;;;10.19;93.45
29417;BME280;28421;51.030;4.006;2023-03-31T21:28:26;99259.81;;;10.17;93.37
29417;BME280;28421;51.030;4.006;2023-03-31T21:30:54;99214.00;;;9.79;93.17
29417;BME280;28421;51.030;4.006;2023-03-31T21:33:23;99226.16;;;9.95;93.54
29417;BME280;28421;51.030;4.006;2023-03-31T21:35:50;99237.53;;;9.77;93.55
29417;BME280;28421;51.030;4.006;2023-03-31T21:38:16;99239.00;;;9.80;94.19
29417;BME280;28421;51.030;4.006;2023-03-31T21:40:42;99269.75;;;9.97;94.25
29417;BME280;28421;51.030;4.006;2023-03-31T21:43:08;99244.56;;;9.85;93.77
29417;BME280;28421;51.030;4.006;2023-03-31T21:45:37;99272.66;;;9.95;94.04
29417;BME280;28421;51.030;4.006;2023-03-31T21:48:04;99261.50;;;9.92;94.21
29417;BME280;28421;51.030;4.006;2023-03-31T21:50:31;99248.28;;;9.84;94.28
29417;BME280;28421;51.030;4.006;2023-03-31T21:52:59;99253.63;;;9.77;94.48
29417;BME280;28421;51.030;4.006;2023-03-31T21:55:24;99212.53;;;9.57;94.42
29417;BME280;28421;51.030;4.006;2023-03-31T21:57:50;99249.53;;;9.75;94.12
29417;BME280;28421;51.030;4.006;2023-03-31T22:00:15;99245.38;;;9.65;93.99
29417;BME280;28421;51.030;4.006;2023-03-31T22:02:41;99244.56;;;9.71;94.31
29417;BME280;28421;51.030;4.006;2023-03-31T22:05:08;99286.47;;;9.92;94.82
29417;BME280;28421;51.030;4.006;2023-03-31T22:07:34;99239.41;;;9.63;94.90
29417;BME280;28421;51.030;4.006;2023-03-31T22:10:00;99281.31;;;9.84;94.64
29417;BME280;28421;51.030;4.006;2023-03-31T22:12:25;99247.63;;;9.62;94.84